createdAt,value
2019-02-06T00:04:03.148Z,7.30
2019-02-06T00:06:54.466Z,7.80
2019-02-06T00:09:37.875Z,7.57
2019-02-06T00:12:28.796Z,7.17
2019-02-06T00:15:12.279Z,6.90
2019-02-06T00:18:03.189Z,6.53
2019-02-06T00:21:07.703Z,5.97
2019-02-06T00:23:58.612Z,5.57
2019-02-06T00:26:42.037Z,5.23
2019-02-06T00:29:32.971Z,5.43
2019-02-06T00:32:16.481Z,5.33
2019-02-06T00:35:07.459Z,5.00
2019-02-06T00:37:51.339Z,4.77
2019-02-06T00:40:42.254Z,4.20
2019-02-06T00:43:25.537Z,4.77
2019-02-06T00:46:16.489Z,4.37
2019-02-06T00:48:59.797Z,4.30
2019-02-06T00:51:50.992Z,4.27
2019-02-06T00:54:34.902Z,3.93
2019-02-06T00:57:25.835Z,4.10
2019-02-06T01:03:29.976Z,3.80
2019-02-06T01:06:20.887Z,4.30
2019-02-06T01:09:07.242Z,3.97
2019-02-06T01:11:58.180Z,3.93
2019-02-06T01:15:02.759Z,4.17
2019-02-06T01:17:53.667Z,3.77
2019-02-06T01:20:37.163Z,3.80
2019-02-06T01:23:28.118Z,4.40
2019-02-06T01:26:11.757Z,3.73
2019-02-06T01:29:02.711Z,3.87
2019-02-06T01:32:05.231Z,3.60
2019-02-06T01:34:56.154Z,3.70
2019-02-06T01:37:40.110Z,4.30
2019-02-06T01:40:31.408Z,4.10
2019-02-06T01:43:15.185Z,4.30
2019-02-06T01:46:06.196Z,3.93
2019-02-06T01:48:49.999Z,4.00
2019-02-06T01:51:33.939Z,3.93
2019-02-06T01:54:24.858Z,4.00
2019-02-06T01:57:15.819Z,4.13
2019-02-06T01:59:59.876Z,4.10
2019-02-06T02:02:51.145Z,3.67
2019-02-06T02:05:37.844Z,4.10
2019-02-06T02:11:38.219Z,4.13
2019-02-06T02:14:29.134Z,4.07
2019-02-06T02:17:13.041Z,4.63
2019-02-06T02:20:07.562Z,4.13
2019-02-06T02:22:50.888Z,4.60
2019-02-06T02:25:41.797Z,4.80
2019-02-06T02:28:25.612Z,4.90
2019-02-06T02:31:16.708Z,4.67
2019-02-06T02:33:59.960Z,5.07
2019-02-06T02:36:51.660Z,4.73
2019-02-06T02:39:35.464Z,5.13
2019-02-06T02:42:26.461Z,4.90
2019-02-06T02:45:11.234Z,5.07
2019-02-06T02:47:55.064Z,5.07
2019-02-06T02:50:45.945Z,5.17
2019-02-06T02:53:29.070Z,4.70
2019-02-06T02:56:20.002Z,5.90
2019-02-06T02:59:03.369Z,4.50
2019-02-06T03:05:36.008Z,5.10
2019-02-06T03:08:26.930Z,5.47
2019-02-06T03:11:10.759Z,5.53
2019-02-06T03:14:01.711Z,5.10
2019-02-06T03:16:45.836Z,5.40
2019-02-06T03:19:36.865Z,5.30
2019-02-06T03:22:20.241Z,4.80
2019-02-06T03:25:50.726Z,5.70
2019-02-06T03:28:34.535Z,5.03
2019-02-06T03:31:25.451Z,5.33
2019-02-06T03:34:08.624Z,5.27
2019-02-06T03:36:59.587Z,5.23
2019-02-06T03:40:05.498Z,5.40
2019-02-06T03:42:56.436Z,5.33
2019-02-06T03:45:40.497Z,5.30
2019-02-06T03:48:24.170Z,5.30
2019-02-06T03:51:15.091Z,5.67
2019-02-06T03:53:58.224Z,5.27
2019-02-06T03:56:49.144Z,5.47
2019-02-06T03:59:32.613Z,4.77
2019-02-06T04:02:23.584Z,4.93
2019-02-06T04:05:27.928Z,5.50
2019-02-06T04:08:18.846Z,5.13
2019-02-06T04:11:02.275Z,5.63
2019-02-06T04:13:53.206Z,4.90
2019-02-06T04:16:58.057Z,4.50
2019-02-06T04:19:48.998Z,5.40
2019-02-06T04:22:33.080Z,5.27
2019-02-06T04:25:24.029Z,4.90
2019-02-06T04:28:07.776Z,4.33
2019-02-06T04:30:58.694Z,5.07
2019-02-06T04:33:42.810Z,5.13
2019-02-06T04:36:33.703Z,5.00
2019-02-06T04:39:17.654Z,5.07
2019-02-06T04:42:08.544Z,5.00
2019-02-06T04:44:52.642Z,5.47
2019-02-06T04:47:36.621Z,4.77
2019-02-06T04:50:27.558Z,5.07
2019-02-06T04:53:10.945Z,4.70
2019-02-06T04:56:03.095Z,4.93
2019-02-06T04:58:49.340Z,4.67
2019-02-06T05:01:40.445Z,5.40
2019-02-06T05:04:24.405Z,5.10
2019-02-06T05:07:19.355Z,4.87
2019-02-06T05:10:19.832Z,5.00
2019-02-06T05:13:11.038Z,4.70
2019-02-06T05:15:54.231Z,5.00
2019-02-06T05:18:45.148Z,5.07
2019-02-06T05:21:28.908Z,5.30
2019-02-06T05:24:19.816Z,5.00
2019-02-06T05:27:22.529Z,4.77
2019-02-06T05:30:13.801Z,5.00
2019-02-06T05:33:04.802Z,5.30
2019-02-06T05:35:55.838Z,4.77
2019-02-06T05:38:46.802Z,5.07
2019-02-06T05:41:30.539Z,4.53
2019-02-06T05:44:21.455Z,4.83
2019-02-06T05:47:04.576Z,5.33
2019-02-06T05:49:55.492Z,5.37
2019-02-06T05:52:38.981Z,5.77
2019-02-06T05:55:29.919Z,5.20
2019-02-06T05:58:13.000Z,5.23
2019-02-06T06:01:03.937Z,5.27
2019-02-06T06:04:08.807Z,5.20
2019-02-06T06:06:59.772Z,4.90
2019-02-06T06:09:43.946Z,5.53
2019-02-06T06:12:34.919Z,5.30
2019-02-06T06:15:39.744Z,5.00
2019-02-06T06:21:57.734Z,5.90
2019-02-06T06:24:48.706Z,5.83
2019-02-06T06:27:31.942Z,5.37
2019-02-06T06:30:22.866Z,5.43
2019-02-06T06:33:06.265Z,4.93
2019-02-06T06:35:57.164Z,5.37
2019-02-06T06:38:41.225Z,5.77
2019-02-06T06:41:32.119Z,5.00
2019-02-06T06:44:16.053Z,5.30
2019-02-06T06:47:06.962Z,5.70
2019-02-06T06:49:50.637Z,5.50
2019-02-06T06:52:41.546Z,5.40
2019-02-06T06:55:25.422Z,6.13
2019-02-06T06:58:16.336Z,5.90
2019-02-06T07:01:00.073Z,5.07
2019-02-06T07:03:51.253Z,5.70
2019-02-06T07:06:35.005Z,5.10
2019-02-06T07:09:25.903Z,5.23
2019-02-06T07:12:09.743Z,5.80
2019-02-06T07:15:00.649Z,5.17
2019-02-06T07:17:43.670Z,5.83
2019-02-06T07:20:34.599Z,5.00
2019-02-06T07:23:39.127Z,5.00
2019-02-06T07:26:30.069Z,5.20
2019-02-06T07:29:14.143Z,5.27
2019-02-06T07:32:05.088Z,5.67
2019-02-06T07:35:09.619Z,5.87
2019-02-06T07:38:00.742Z,5.53
2019-02-06T07:40:44.765Z,5.47
2019-02-06T07:43:36.663Z,4.83
2019-02-06T07:46:40.888Z,5.17
2019-02-06T07:49:32.523Z,5.07
2019-02-06T07:52:16.620Z,5.03
2019-02-06T07:55:07.533Z,5.03
2019-02-06T07:58:12.357Z,5.20
2019-02-06T08:01:03.738Z,5.20
2019-02-06T08:03:47.711Z,5.20
2019-02-06T08:06:38.638Z,5.00
2019-02-06T08:09:42.892Z,4.80
2019-02-06T08:12:33.826Z,5.40
2019-02-06T08:15:17.155Z,5.17
2019-02-06T08:18:08.192Z,5.13
2019-02-06T08:21:13.071Z,4.97
2019-02-06T08:24:04.032Z,4.93
2019-02-06T08:26:47.205Z,5.17
2019-02-06T08:29:38.148Z,5.10
2019-02-06T08:32:42.811Z,4.77
2019-02-06T08:35:33.747Z,4.70
2019-02-06T08:38:17.226Z,4.40
2019-02-06T08:41:08.127Z,4.93
2019-02-06T08:44:12.512Z,4.27
2019-02-06T08:47:03.454Z,4.73
2019-02-06T08:49:46.898Z,4.63
2019-02-06T08:52:30.885Z,4.53
2019-02-06T08:55:23.596Z,4.47
2019-02-06T08:58:07.188Z,4.73
2019-02-06T09:00:58.119Z,4.50
2019-02-06T09:03:41.622Z,4.67
2019-02-06T09:06:32.521Z,4.80
2019-02-06T09:09:16.513Z,4.40
2019-02-06T09:12:07.465Z,4.70
2019-02-06T09:14:51.166Z,4.27
2019-02-06T09:17:42.179Z,4.40
2019-02-06T09:20:26.096Z,4.50
2019-02-06T09:23:17.000Z,4.73
2019-02-06T09:26:00.611Z,5.00
2019-02-06T09:28:51.916Z,4.70
2019-02-06T09:31:37.567Z,4.37
2019-02-06T09:34:28.482Z,4.63
2019-02-06T09:37:12.371Z,4.83
2019-02-06T09:40:03.301Z,4.40
2019-02-06T09:42:47.427Z,4.13
2019-02-06T09:45:38.376Z,3.77
2019-02-06T09:48:21.941Z,5.23
2019-02-06T09:51:05.766Z,4.30
2019-02-06T09:53:56.703Z,4.60
2019-02-06T09:56:40.702Z,4.50
2019-02-06T09:59:31.606Z,4.07
2019-02-06T10:02:22.531Z,4.83
2019-02-06T10:05:25.827Z,4.10
2019-02-06T10:08:16.772Z,4.03
2019-02-06T10:11:00.604Z,4.07
2019-02-06T10:13:51.503Z,4.50
2019-02-06T10:16:35.402Z,4.10
2019-02-06T10:19:26.309Z,4.53
2019-02-06T10:22:10.065Z,3.73
2019-02-06T10:25:01.003Z,3.97
2019-02-06T10:27:44.446Z,4.33
2019-02-06T10:30:37.777Z,4.00
2019-02-06T10:33:22.008Z,4.07
2019-02-06T10:39:40.912Z,3.50
2019-02-06T10:42:32.195Z,4.10
2019-02-06T10:45:23.123Z,3.17
2019-02-06T10:48:07.233Z,3.40
2019-02-06T10:50:58.573Z,3.10
2019-02-06T10:54:10.130Z,3.03
2019-02-06T10:56:53.730Z,3.23
2019-02-06T10:59:44.627Z,2.87
2019-02-06T11:02:28.505Z,3.10
2019-02-06T11:08:48.395Z,3.23
2019-02-06T11:11:39.285Z,3.20
2019-02-06T11:14:30.197Z,3.00
2019-02-06T11:17:13.897Z,3.10
2019-02-06T11:23:34.024Z,3.10
2019-02-06T11:26:24.940Z,3.00
2019-02-06T11:29:08.800Z,3.17
2019-02-06T11:32:00.008Z,3.37
2019-02-06T11:34:43.347Z,2.83
2019-02-06T11:37:34.253Z,2.87
2019-02-06T11:40:18.805Z,2.70
2019-02-06T11:43:09.720Z,3.30
2019-02-06T11:45:53.050Z,2.83
2019-02-06T11:48:43.921Z,3.17
2019-02-06T11:51:48.851Z,2.97
2019-02-06T11:54:39.746Z,2.90
2019-02-06T11:57:24.248Z,2.80
2019-02-06T12:03:41.321Z,2.97
2019-02-06T12:06:32.496Z,3.30
2019-02-06T12:09:16.467Z,3.50
2019-02-06T12:12:07.383Z,2.90
2019-02-06T12:14:51.219Z,3.33
2019-02-06T12:17:35.136Z,3.50
2019-02-06T12:20:26.318Z,3.17
2019-02-06T12:23:17.234Z,3.27
2019-02-06T12:26:21.541Z,3.53
2019-02-06T12:29:12.457Z,3.50
2019-02-06T12:32:15.759Z,3.03
2019-02-06T12:35:07.274Z,3.30
2019-02-06T12:37:50.615Z,3.00
2019-02-06T12:40:41.519Z,3.37
2019-02-06T12:43:25.217Z,3.53
2019-02-06T12:46:16.161Z,3.47
2019-02-06T12:48:59.294Z,3.27
2019-02-06T12:51:52.371Z,3.50
2019-02-06T12:54:55.118Z,3.47
2019-02-06T12:57:46.002Z,3.40
2019-02-06T13:00:30.510Z,3.23
2019-02-06T13:03:21.434Z,2.77
2019-02-06T13:06:05.346Z,3.70
2019-02-06T13:08:56.265Z,3.10
2019-02-06T13:11:47.382Z,3.60
2019-02-06T13:14:38.322Z,3.50
2019-02-06T13:17:22.144Z,3.80
2019-02-06T13:20:07.005Z,3.10
2019-02-06T13:22:58.093Z,3.07
2019-02-06T13:25:41.925Z,3.77
2019-02-06T13:28:33.094Z,3.30
2019-02-06T13:31:17.135Z,3.60
2019-02-06T13:34:08.042Z,3.07
2019-02-06T13:36:51.773Z,3.87
2019-02-06T13:39:42.724Z,3.57
2019-02-06T13:42:25.871Z,3.57
2019-02-06T13:48:33.682Z,3.47
2019-02-06T13:51:24.203Z,2.87
2019-02-06T13:54:08.222Z,3.60
2019-02-06T13:57:18.001Z,3.30
2019-02-06T14:00:01.939Z,2.80
2019-02-06T14:06:19.922Z,3.00
2019-02-06T14:12:32.211Z,3.30
2019-02-06T14:15:18.099Z,2.90
2019-02-06T14:18:09.007Z,3.10
2019-02-06T14:20:53.427Z,3.10
2019-02-06T14:24:07.556Z,3.80
2019-02-06T14:26:57.752Z,3.40
2019-02-06T14:30:26.753Z,3.50
2019-02-06T14:33:17.948Z,3.37
2019-02-06T14:36:46.959Z,3.23
2019-02-06T14:39:39.547Z,2.83
2019-02-06T14:42:52.981Z,3.40
2019-02-06T14:45:55.571Z,3.33
2019-02-06T14:49:11.166Z,3.53
2019-02-06T14:52:13.704Z,3.60
2019-02-06T14:55:27.671Z,3.20
2019-02-06T14:58:56.683Z,3.20
2019-02-06T15:01:47.596Z,3.37
2019-02-06T15:05:02.306Z,3.13
2019-02-06T15:07:55.281Z,3.33
2019-02-06T15:11:19.953Z,3.10
2019-02-06T15:14:49.551Z,3.73
2019-02-06T15:17:51.886Z,3.50
2019-02-06T15:21:13.589Z,3.47
2019-02-06T15:24:16.222Z,4.00
2019-02-06T15:27:45.175Z,3.70
2019-02-06T15:30:47.937Z,3.50
2019-02-06T15:34:17.302Z,3.47
2019-02-06T15:37:23.564Z,3.67
2019-02-06T15:40:52.581Z,3.60
2019-02-06T15:43:55.154Z,3.80
2019-02-06T15:46:53.848Z,3.50
2019-02-06T15:50:04.353Z,3.70
2019-02-06T15:53:33.376Z,3.63
2019-02-06T15:56:35.542Z,3.07
2019-02-06T15:59:41.059Z,3.60
2019-02-06T16:03:10.126Z,3.10
2019-02-06T16:06:16.439Z,3.37
2019-02-06T16:09:19.357Z,3.60
2019-02-06T16:12:48.313Z,3.60
2019-02-06T16:15:51.054Z,3.50
2019-02-06T16:19:20.053Z,3.23
2019-02-06T16:22:08.095Z,3.60
2019-02-06T16:25:24.908Z,3.70
2019-02-06T16:28:17.589Z,3.00
2019-02-06T16:32:05.902Z,3.80
2019-02-06T16:35:08.022Z,3.47
2019-02-06T16:38:37.304Z,4.30
2019-02-06T16:41:53.163Z,3.50
2019-02-06T16:45:35.687Z,3.60
2019-02-06T16:48:38.107Z,3.50
2019-02-06T16:51:47.529Z,3.70
2019-02-06T16:54:52.762Z,3.67
2019-02-06T16:58:21.829Z,3.63
2019-02-06T17:01:16.582Z,3.70
2019-02-06T17:04:45.598Z,3.70
2019-02-06T17:07:36.197Z,3.83
2019-02-06T17:10:44.708Z,3.37
2019-02-06T17:14:33.079Z,3.70
2019-02-06T17:17:22.944Z,4.00
2019-02-06T17:20:51.964Z,3.57
2019-02-06T17:23:45.436Z,4.03
2019-02-06T17:26:59.965Z,4.10
2019-02-06T17:30:02.661Z,4.07
2019-02-06T17:33:32.035Z,4.10
2019-02-06T17:36:35.309Z,4.00
2019-02-06T17:39:58.529Z,4.27
2019-02-06T17:43:27.526Z,3.80
2019-02-06T17:46:21.251Z,3.97
2019-02-06T17:49:35.287Z,3.80
2019-02-06T17:52:37.872Z,3.83
2019-02-06T17:55:28.811Z,3.50
2019-02-06T17:58:12.553Z,3.80
2019-02-06T18:01:41.568Z,3.97
2019-02-06T18:04:44.599Z,3.37
2019-02-06T18:07:35.583Z,3.60
2019-02-06T18:10:18.800Z,3.90
2019-02-06T18:13:09.695Z,4.00
2019-02-06T18:15:53.455Z,3.77
2019-02-06T18:18:44.780Z,3.70
2019-02-06T18:21:27.881Z,3.90
2019-02-06T18:24:18.834Z,3.67
2019-02-06T18:27:02.161Z,3.70
2019-02-06T18:29:53.105Z,4.13
2019-02-06T18:32:59.525Z,4.23
2019-02-06T18:35:50.464Z,3.10
2019-02-06T18:38:34.200Z,3.93
2019-02-06T18:41:25.174Z,3.80
2019-02-06T18:44:30.242Z,4.07
2019-02-06T18:47:41.596Z,3.93
2019-02-06T18:50:24.958Z,3.90
2019-02-06T18:53:15.999Z,3.80
2019-02-06T18:55:59.833Z,4.03
2019-02-06T18:58:50.831Z,3.77
2019-02-06T19:01:34.348Z,3.73
2019-02-06T19:04:25.449Z,3.97
2019-02-06T19:07:09.337Z,3.93
2019-02-06T19:10:00.617Z,4.00
2019-02-06T19:12:48.187Z,4.70
2019-02-06T19:15:37.268Z,3.90
2019-02-06T19:18:21.047Z,4.13
2019-02-06T19:21:04.726Z,3.90
2019-02-06T19:23:56.008Z,3.93
2019-02-06T19:26:39.261Z,4.07
2019-02-06T19:29:30.165Z,4.03
2019-02-06T19:32:13.812Z,4.07
2019-02-06T19:35:05.500Z,4.00
2019-02-06T19:37:48.828Z,4.17
2019-02-06T19:40:20.896Z,4.43
2019-02-06T19:43:11.852Z,4.87
2019-02-06T19:45:56.067Z,4.60
2019-02-06T19:48:47.007Z,4.10
2019-02-06T19:51:37.949Z,4.03
2019-02-06T19:54:28.988Z,4.40
2019-02-06T19:57:12.898Z,4.43
2019-02-06T20:03:32.695Z,4.30
2019-02-06T20:06:44.159Z,5.13
2019-02-06T20:09:30.319Z,4.63
2019-02-06T20:12:20.393Z,4.63
2019-02-06T20:15:04.449Z,4.50
2019-02-06T20:17:55.379Z,5.00
2019-02-06T20:20:38.984Z,4.80
2019-02-06T20:23:29.929Z,5.37
2019-02-06T20:26:13.696Z,5.20
2019-02-06T20:29:04.912Z,5.60
2019-02-06T20:31:48.812Z,4.93
2019-02-06T20:34:39.763Z,5.73
2019-02-06T20:37:23.755Z,5.67
2019-02-06T20:40:17.265Z,5.50
2019-02-06T20:43:00.599Z,5.57
2019-02-06T20:45:51.561Z,5.13
2019-02-06T20:48:55.973Z,5.30
2019-02-06T20:51:46.912Z,5.43
2019-02-06T20:54:30.179Z,6.10
2019-02-06T20:57:21.160Z,5.77
2019-02-06T21:00:06.682Z,6.23
2019-02-06T21:06:00.353Z,6.27
2019-02-06T21:08:43.932Z,5.73
2019-02-06T21:11:34.959Z,5.60
2019-02-06T21:14:18.549Z,5.83
2019-02-06T21:17:09.484Z,5.67
2019-02-06T21:19:53.050Z,5.57
2019-02-06T21:22:44.028Z,6.00
2019-02-06T21:25:28.014Z,6.17
2019-02-06T21:28:19.014Z,5.90
2019-02-06T21:31:03.068Z,6.40
2019-02-06T21:33:54.044Z,5.80
2019-02-06T21:36:38.063Z,5.83
2019-02-06T21:39:29.376Z,6.20
2019-02-06T21:42:12.408Z,5.70
2019-02-06T21:45:03.330Z,6.03
2019-02-06T21:47:46.986Z,6.20
2019-02-06T21:50:37.884Z,5.93
2019-02-06T21:53:21.730Z,5.83
2019-02-06T21:56:12.634Z,5.67
2019-02-06T21:59:17.085Z,6.10
2019-02-06T22:02:00.456Z,6.37
2019-02-06T22:04:51.377Z,5.50
2019-02-06T22:07:35.287Z,6.27
2019-02-06T22:10:26.527Z,6.20
2019-02-06T22:13:29.578Z,6.27
2019-02-06T22:16:20.534Z,5.53
2019-02-06T22:19:23.997Z,5.73
2019-02-06T22:22:14.902Z,5.97
2019-02-06T22:25:17.993Z,5.70
2019-02-06T22:28:02.027Z,5.93
2019-02-06T22:30:52.956Z,5.60
2019-02-06T22:33:36.958Z,5.53
2019-02-06T22:36:27.907Z,6.33
2019-02-06T22:39:12.051Z,5.67
2019-02-06T22:42:02.953Z,6.60
2019-02-06T22:44:46.564Z,5.87
2019-02-06T22:47:37.504Z,6.13
2019-02-06T22:50:40.142Z,6.40
2019-02-06T22:53:31.075Z,6.27
2019-02-06T22:56:15.054Z,6.00
2019-02-06T22:59:06.233Z,6.77
2019-02-06T23:01:51.167Z,6.23
2019-02-06T23:04:42.064Z,6.63
2019-02-06T23:07:25.099Z,7.00
2019-02-06T23:10:16.213Z,5.97
2019-02-06T23:13:19.009Z,6.80
2019-02-06T23:16:10.155Z,6.40
2019-02-06T23:18:53.937Z,6.63
2019-02-06T23:21:44.985Z,6.67
2019-02-06T23:24:48.050Z,6.23
2019-02-06T23:27:31.934Z,6.37
2019-02-06T23:30:22.859Z,6.73
2019-02-06T23:33:06.799Z,6.40
2019-02-06T23:35:57.726Z,6.70
2019-02-06T23:38:41.761Z,6.70
2019-02-06T23:41:32.728Z,7.27
2019-02-06T23:44:16.520Z,6.63
2019-02-06T23:47:07.410Z,7.63
2019-02-06T23:49:51.115Z,6.97
2019-02-06T23:52:42.183Z,7.03
2019-02-06T23:55:26.074Z,6.43
2019-02-06T23:58:17.000Z,6.60
